Eagle River, WI

8:12 AM CDT on October 24, 2014 (GMT -0500)
Eagle River Union | Change Station
CLOSE
Current Station
Airport
Location: Eagle River,
Elevation: 1640 ft
Nearby Weather Stations
Active Advisory: Dense Fog Advisory

Elev 1640 ft 45.93 °N, 89.27 °W | Updated 17 minutes ago

Fog
Fog
42 °F
Feels Like 42 °F
N
0
Wind Variable Wind from North

Today
High -- | Low -- °F
--% Chance of Precip.
Yesterday
High -- | Low -- °F
Precip. -- in
7:26 AM 5:55 PM
New Moon, 0% visible
Pressure 29.97 in
Visibility 0.2 miles
Clouds Overcast 300 ft
Dew Point 42 °F
Humidity 100%
Rainfall 0.00 in
Snow Depth Not available.
UV 0 out of 12
Pollen .60 out of 12
Air Quality Not available.
Flu Activity Sporadic
METAR KEGV 241255Z AUTO 00000KT 1/4SM FG OVC003 06/06 A2997 RMK AO2 T00570057

More Conditions Fewer Conditions

Pressure 29.97 in
Visibility 0.2 miles
Clouds Overcast 300 ft
Dew Point 42 °F
Humidity 100%
Rainfall 0.00 in
Snow Depth Not available.
UV 0 out of 12
Pollen .60 out of 12
Air Quality Not available.
Flu Activity Sporadic
METAR KEGV 241255Z AUTO 00000KT 1/4SM FG OVC003 06/06 A2997 RMK AO2 T00570057

More Conditions Fewer Conditions

10-Day Weather Forecast

Almanac

Astronomy

Oct. 24, 2014 Rise Set
Actual Time 7:26 AM CDT 5:55 PM CDT
Civil Twilight 6:55 AM CDT 6:26 PM CDT
Nautical Twilight 6:20 AM CDT 7:00 PM CDT
Astronomical Twilight 5:46 AM CDT 7:35 PM CDT
Moon 8:06 AM CDT 6:32 PM CDT
Length of Visible Light 11h 30m
Length of Day
10h 29m
Tomorrow will be 3m 1s shorter.
New Moon, 0% of the Moon is Illuminated
Today
New Moon
Oct 30
First Quarter
Nov 6
Full
Nov 14
Last Quarter
Nov 22
New

Today's Extremes

State Highs State Lows

Community

WunderPhotos

Upload Photos

1,764,545 photos uploaded!

Nearby

Snow Depth

Station Depth Elevation
No new snow has been reported.

Earthquake Activity

City Distance Mag. Time & Date
No recent earthquake activity has been reported nearby.
Minimum magnitude displayed is 2.5.

Coastal Water Temperatures

Place Temperature
No Stations Reporting

Nearby Weather Stations